sensor_id;sensor_type;location;lat;lon;timestamp;P1;P2;P0
74430;PMS7003;62863;52.062;23.764;2022-10-16T08:09:15;24;21.7;15.3
74430;PMS7003;62863;52.062;23.764;2022-10-16T08:13:55;36;27.3;18
74430;PMS7003;62863;52.062;23.764;2022-10-16T08:19:05;41.8;33.6;21.4
74430;PMS7003;62863;52.062;23.764;2022-10-16T08:23:55;36;30.5;19
74430;PMS7003;62863;52.062;23.764;2022-10-16T08:28:52;29;24.2;17
74430;PMS7003;62863;52.062;23.764;2022-10-16T08:34:15;23.8;22.5;14.5
74430;PMS7003;62863;52.062;23.764;2022-10-16T08:38:41;26.8;24;15.8
74430;PMS7003;62863;52.062;23.764;2022-10-16T08:44:22;37.6;30.2;20.4
74430;PMS7003;62863;52.062;23.764;2022-10-16T08:48:44;29.2;26.4;17.2
74430;PMS7003;62863;52.062;23.764;2022-10-16T08:54:21;31.3;25.8;17.5
74430;PMS7003;62863;52.062;23.764;2022-10-16T08:59:06;30.4;26.2;18.4
74430;PMS7003;62863;52.062;23.764;2022-10-16T09:04:23;31;25.3;16.5
74430;PMS7003;62863;52.062;23.764;2022-10-16T09:09:33;22.6;19.8;14.2
74430;PMS7003;62863;52.062;23.764;2022-10-16T09:13:43;24.6;21.6;14.6
74430;PMS7003;62863;52.062;23.764;2022-10-16T09:18:43;22.5;18.8;14
74430;PMS7003;62863;52.062;23.764;2022-10-16T09:23:41;21.7;18.7;14
74430;PMS7003;62863;52.062;23.764;2022-10-16T09:29:16;27.3;25;16
74430;PMS7003;62863;52.062;23.764;2022-10-16T09:34:05;24.7;22.3;16
74430;PMS7003;62863;52.062;23.764;2022-10-16T09:39:10;30.8;25.4;17
74430;PMS7003;62863;52.062;23.764;2022-10-16T09:44:17;27.6;24;16.8
74430;PMS7003;62863;52.062;23.764;2022-10-16T09:49:19;22.2;18.6;14.6
74430;PMS7003;62863;52.062;23.764;2022-10-16T09:54:18;25;21.8;15.6
74430;PMS7003;62863;52.062;23.764;2022-10-16T09:59:31;22.6;20.6;14.6
74430;PMS7003;62863;52.062;23.764;2022-10-16T10:03:42;25.7;20.7;15.3
74430;PMS7003;62863;52.062;23.764;2022-10-16T10:08:51;28;24;15
74430;PMS7003;62863;52.062;23.764;2022-10-16T10:14:03;27.3;22.7;16.3
74430;PMS7003;62863;52.062;23.764;2022-10-16T10:19:30;22.2;19.6;13.4
74430;PMS7003;62863;52.062;23.764;2022-10-16T10:24:31;28.8;25.4;16.8
74430;PMS7003;62863;52.062;23.764;2022-10-16T10:29:10;22.3;20.5;15.8
74430;PMS7003;62863;52.062;23.764;2022-10-16T10:34:35;24;21;14.3
74430;PMS7003;62863;52.062;23.764;2022-10-16T10:39:22;23;21;15
74430;PMS7003;62863;52.062;23.764;2022-10-16T10:43:58;26.8;22.2;15
74430;PMS7003;62863;52.062;23.764;2022-10-16T10:49:09;23.6;19.6;14
74430;PMS7003;62863;52.062;23.764;2022-10-16T10:54:12;20.3;17.3;12.7
74430;PMS7003;62863;52.062;23.764;2022-10-16T10:59:00;21;18.3;13.3
74430;PMS7003;62863;52.062;23.764;2022-10-16T11:04:23;26.6;22.2;15.6
74430;PMS7003;62863;52.062;23.764;2022-10-16T11:08:43;23.8;20.4;14.6
74430;PMS7003;62863;52.062;23.764;2022-10-16T11:14:28;22.8;19.4;14.6
74430;PMS7003;62863;52.062;23.764;2022-10-16T11:19:34;25;22.4;15
74430;PMS7003;62863;52.062;23.764;2022-10-16T11:24:09;20.4;18.4;12.2
74430;PMS7003;62863;52.062;23.764;2022-10-16T11:29:10;22;20.2;14
74430;PMS7003;62863;52.062;23.764;2022-10-16T11:34:31;22.8;21;14
74430;PMS7003;62863;52.062;23.764;2022-10-16T11:39:28;22.8;19;13.2
74430;PMS7003;62863;52.062;23.764;2022-10-16T11:43:59;24;20.2;14
74430;PMS7003;62863;52.062;23.764;2022-10-16T11:48:57;39;32;21
74430;PMS7003;62863;52.062;23.764;2022-10-16T11:53:57;30.4;25.6;17.4
74430;PMS7003;62863;52.062;23.764;2022-10-16T11:59:19;21.3;19;13.7
74430;PMS7003;62863;52.062;23.764;2022-10-16T12:04:20;29.8;24.5;17.3
74430;PMS7003;62863;52.062;23.764;2022-10-16T12:09:09;23.7;21;15
74430;PMS7003;62863;52.062;23.764;2022-10-16T12:14:32;33;28.7;19.3
74430;PMS7003;62863;52.062;23.764;2022-10-16T12:19:20;25.5;24;17.5
74430;PMS7003;62863;52.062;23.764;2022-10-16T12:23:51;26.3;21.5;14.8
74430;PMS7003;62863;52.062;23.764;2022-10-16T12:29:21;23.8;20.8;14.4
74430;PMS7003;62863;52.062;23.764;2022-10-16T12:34:32;23.8;21.8;14.8
74430;PMS7003;62863;52.062;23.764;2022-10-16T12:38:45;24.3;22;15.3
74430;PMS7003;62863;52.062;23.764;2022-10-16T12:43:56;27.3;24.3;17.3
74430;PMS7003;62863;52.062;23.764;2022-10-16T12:49:30;45;34.2;22.8
74430;PMS7003;62863;52.062;23.764;2022-10-16T12:54:21;29.6;25.4;17.2
74430;PMS7003;62863;52.062;23.764;2022-10-16T12:59:26;22.8;21.5;15.5
74430;PMS7003;62863;52.062;23.764;2022-10-16T13:04:15;23.2;19.6;14
74430;PMS7003;62863;52.062;23.764;2022-10-16T13:09:28;26;21.8;14.8
74430;PMS7003;62863;52.062;23.764;2022-10-16T13:14:33;24.5;21.5;15
74430;PMS7003;62863;52.062;23.764;2022-10-16T13:19:06;26.8;21.6;15.4
74430;PMS7003;62863;52.062;23.764;2022-10-16T13:23:49;36.8;30;19.8
74430;PMS7003;62863;52.062;23.764;2022-10-16T13:29:08;37.8;31.3;20.8
74430;PMS7003;62863;52.062;23.764;2022-10-16T13:34:18;38.8;32.8;22
74430;PMS7003;62863;52.062;23.764;2022-10-16T13:39:10;37.8;30.2;19.6
74430;PMS7003;62863;52.062;23.764;2022-10-16T13:43:52;42.2;33.4;21
74430;PMS7003;62863;52.062;23.764;2022-10-16T13:49:32;29;24;16
74430;PMS7003;62863;52.062;23.764;2022-10-16T13:54:32;41.3;32.3;21.7
74430;PMS7003;62863;52.062;23.764;2022-10-16T13:59:22;33;27.2;18
74430;PMS7003;62863;52.062;23.764;2022-10-16T14:04:29;30;24.7;17
74430;PMS7003;62863;52.062;23.764;2022-10-16T14:09:32;35;26.8;18
74430;PMS7003;62863;52.062;23.764;2022-10-16T14:14:33;24.4;21;14.4
74430;PMS7003;62863;52.062;23.764;2022-10-16T14:18:56;32.7;26.7;17.3
74430;PMS7003;62863;52.062;23.764;2022-10-16T14:24:19;40;31.5;19.5
74430;PMS7003;62863;52.062;23.764;2022-10-16T14:29:28;38.3;31.3;19.3
74430;PMS7003;62863;52.062;23.764;2022-10-16T14:34:32;56;42.4;26.6
74430;PMS7003;62863;52.062;23.764;2022-10-16T14:39:14;37.6;30.2;19.6
74430;PMS7003;62863;52.062;23.764;2022-10-16T14:44:20;30.4;24;16.2
74430;PMS7003;62863;52.062;23.764;2022-10-16T14:49:18;34.5;27.3;17.5
74430;PMS7003;62863;52.062;23.764;2022-10-16T14:53:42;25;23;15
74430;PMS7003;62863;52.062;23.764;2022-10-16T14:59:17;50.3;38.8;24
74430;PMS7003;62863;52.062;23.764;2022-10-16T15:04:32;49;37.8;22.5
74430;PMS7003;62863;52.062;23.764;2022-10-16T15:08:56;48.5;37.3;23
74430;PMS7003;62863;52.062;23.764;2022-10-16T15:13:56;58.3;43;26.8
74430;PMS7003;62863;52.062;23.764;2022-10-16T15:19:32;57.4;43.8;27.6
74430;PMS7003;62863;52.062;23.764;2022-10-16T15:24:23;45.2;34.2;22
74430;PMS7003;62863;52.062;23.764;2022-10-16T15:29:30;44.8;36.2;23.4
74430;PMS7003;62863;52.062;23.764;2022-10-16T15:34:18;39.8;32.8;21.8
74430;PMS7003;62863;52.062;23.764;2022-10-16T15:39:20;38.4;29.4;19.8
74430;PMS7003;62863;52.062;23.764;2022-10-16T15:44:30;34;26.8;19.2
74430;PMS7003;62863;52.062;23.764;2022-10-16T15:49:06;42.5;33;22.5
74430;PMS7003;62863;52.062;23.764;2022-10-16T15:54:06;66.3;53;30.8
74430;PMS7003;62863;52.062;23.764;2022-10-16T15:58:56;93.4;75.6;42.8
74430;PMS7003;62863;52.062;23.764;2022-10-16T16:03:58;60;46.6;29
74430;PMS7003;62863;52.062;23.764;2022-10-16T16:08:52;61.8;47.2;28.2
74430;PMS7003;62863;52.062;23.764;2022-10-16T16:14:06;54.4;43;26.2
74430;PMS7003;62863;52.062;23.764;2022-10-16T16:19:30;52.2;40.2;24.8
74430;PMS7003;62863;52.062;23.764;2022-10-16T16:24:28;54.6;41.2;24.8
74430;PMS7003;62863;52.062;23.764;2022-10-16T16:29:06;54.8;42.8;25.5
74430;PMS7003;62863;52.062;23.764;2022-10-16T16:34:30;60.8;49.2;29.4
74430;PMS7003;62863;52.062;23.764;2022-10-16T16:39:18;165.6;141;78.8
74430;PMS7003;62863;52.062;23.764;2022-10-16T16:44:28;101.2;84.2;50.4
74430;PMS7003;62863;52.062;23.764;2022-10-16T16:48:52;79;64;42
74430;PMS7003;62863;52.062;23.764;2022-10-16T16:54:18;59.8;47.2;30.4
74430;PMS7003;62863;52.062;23.764;2022-10-16T16:58:56;29.2;27;18.6
74430;PMS7003;62863;52.062;23.764;2022-10-16T17:04:16;26.6;22.2;15.8
74430;PMS7003;62863;52.062;23.764;2022-10-16T17:09:04;28.5;24.5;16.8
74430;PMS7003;62863;52.062;23.764;2022-10-16T17:14:20;25;22.2;16.6
74430;PMS7003;62863;52.062;23.764;2022-10-16T17:19:14;25.6;23.4;17.8
74430;PMS7003;62863;52.062;23.764;2022-10-16T17:24:14;26.2;24.2;17.6
74430;PMS7003;62863;52.062;23.764;2022-10-16T17:29:18;19.8;17.8;13.5
74430;PMS7003;62863;52.062;23.764;2022-10-16T17:34:28;22.4;18.4;13.4
74430;PMS7003;62863;52.062;23.764;2022-10-16T17:38:56;18.8;16.8;12.6
74430;PMS7003;62863;52.062;23.764;2022-10-16T17:43:42;22.6;19.8;14.2
74430;PMS7003;62863;52.062;23.764;2022-10-16T17:48:42;44.4;35.4;22.8
74430;PMS7003;62863;52.062;23.764;2022-10-16T17:54:04;95.4;80.6;47.4
74430;PMS7003;62863;52.062;23.764;2022-10-16T17:59:28;63.6;49;29.8
74430;PMS7003;62863;52.062;23.764;2022-10-16T18:04:06;63.6;50.6;31.6
74430;PMS7003;62863;52.062;23.764;2022-10-16T18:09:26;46.8;35.6;23.6
74430;PMS7003;62863;52.062;23.764;2022-10-16T18:14:16;41;34;22
74430;PMS7003;62863;52.062;23.764;2022-10-16T18:19:06;26;23.8;17
74430;PMS7003;62863;52.062;23.764;2022-10-16T18:23:56;24.2;19.8;13.8
74430;PMS7003;62863;52.062;23.764;2022-10-16T18:28:56;19.6;17;11.8
74430;PMS7003;62863;52.062;23.764;2022-10-16T18:33:58;15;14.2;10.6
74430;PMS7003;62863;52.062;23.764;2022-10-16T18:38:42;17.8;16.2;11.8
74430;PMS7003;62863;52.062;23.764;2022-10-16T18:43:56;19.8;16.8;11.6
74430;PMS7003;62863;52.062;23.764;2022-10-16T18:49:30;20.6;17.8;13
74430;PMS7003;62863;52.062;23.764;2022-10-16T18:54:18;18.4;16.2;11.2
74430;PMS7003;62863;52.062;23.764;2022-10-16T18:59:06;24.2;22;13.8
74430;PMS7003;62863;52.062;23.764;2022-10-16T19:04:06;25.2;22.8;16.2
74430;PMS7003;62863;52.062;23.764;2022-10-16T19:09:16;18;15.8;11.8
74430;PMS7003;62863;52.062;23.764;2022-10-16T19:14:28;25;20.6;14.2
74430;PMS7003;62863;52.062;23.764;2022-10-16T19:18:59;28.6;23.6;16.2
74430;PMS7003;62863;52.062;23.764;2022-10-16T19:23:57;21.4;19.8;13.4
74430;PMS7003;62863;52.062;23.764;2022-10-16T19:29:06;31.8;27.2;18.4
74430;PMS7003;62863;52.062;23.764;2022-10-16T19:34:20;29.2;26;17.4
74430;PMS7003;62863;52.062;23.764;2022-10-16T19:39:06;20.6;17.8;12.6
74430;PMS7003;62863;52.062;23.764;2022-10-16T19:44:26;17.6;16.2;11.4
74430;PMS7003;62863;52.062;23.764;2022-10-16T19:49:16;18.8;14.8;10.4
74430;PMS7003;62863;52.062;23.764;2022-10-16T19:54:18;22.4;19.8;14.6
74430;PMS7003;62863;52.062;23.764;2022-10-16T19:59:05;36.2;30.4;20
74430;PMS7003;62863;52.062;23.764;2022-10-16T20:04:30;21;17.8;12.4
74430;PMS7003;62863;52.062;23.764;2022-10-16T20:08:56;16.8;14.8;10.8
74430;PMS7003;62863;52.062;23.764;2022-10-16T20:13:42;21;16.7;11.3
74430;PMS7003;62863;52.062;23.764;2022-10-16T20:18:56;19;15.8;11.2
74430;PMS7003;62863;52.062;23.764;2022-10-16T20:24:28;16.8;15.4;11.2
74430;PMS7003;62863;52.062;23.764;2022-10-16T20:29:28;17;15;10.6
74430;PMS7003;62863;52.062;23.764;2022-10-16T20:34:06;16.8;15;10.8
74430;PMS7003;62863;52.062;23.764;2022-10-16T20:39:32;15;13.6;10
74430;PMS7003;62863;52.062;23.764;2022-10-16T20:44:18;18.6;14.8;10.8
74430;PMS7003;62863;52.062;23.764;2022-10-16T20:49:08;20.4;16.4;11.4
74430;PMS7003;62863;52.062;23.764;2022-10-16T20:54:09;17.8;16.3;11.3
74430;PMS7003;62863;52.062;23.764;2022-10-16T20:58:56;17.2;15.4;11
74430;PMS7003;62863;52.062;23.764;2022-10-16T21:03:42;19.2;16.4;11.6
74430;PMS7003;62863;52.062;23.764;2022-10-16T21:08:42;17.8;15.8;12
74430;PMS7003;62863;52.062;23.764;2022-10-16T21:14:08;18;15.2;11.4
74430;PMS7003;62863;52.062;23.764;2022-10-16T21:18:42;19.2;16;11.8
74430;PMS7003;62863;52.062;23.764;2022-10-16T21:24:30;18.2;15.6;11.2
74430;PMS7003;62863;52.062;23.764;2022-10-16T21:29:18;19.8;16.2;11.2
74430;PMS7003;62863;52.062;23.764;2022-10-16T21:34:06;19.6;16.2;11.4
74430;PMS7003;62863;52.062;23.764;2022-10-16T21:39:30;17.6;14.4;11
74430;PMS7003;62863;52.062;23.764;2022-10-16T21:44:18;19.2;16.8;11.4
74430;PMS7003;62863;52.062;23.764;2022-10-16T21:49:32;15.6;14.4;10.6
74430;PMS7003;62863;52.062;23.764;2022-10-16T21:53:56;19.5;17.8;13
74430;PMS7003;62863;52.062;23.764;2022-10-16T21:58:54;16.6;14.8;11.2
74430;PMS7003;62863;52.062;23.764;2022-10-16T22:04:32;18.8;16.2;12
74430;PMS7003;62863;52.062;23.764;2022-10-16T22:09:18;18.8;15.8;11
74430;PMS7003;62863;52.062;23.764;2022-10-16T22:14:04;17.4;16.4;12
74430;PMS7003;62863;52.062;23.764;2022-10-16T22:19:11;17.2;14.8;11
74430;PMS7003;62863;52.062;23.764;2022-10-16T22:23:44;17.8;15.6;11.2
74430;PMS7003;62863;52.062;23.764;2022-10-16T22:28:56;18;15.6;11.4
74430;PMS7003;62863;52.062;23.764;2022-10-16T22:34:18;16.6;15.2;10.8
74430;PMS7003;62863;52.062;23.764;2022-10-16T22:39:26;18;16;10.8
74430;PMS7003;62863;52.062;23.764;2022-10-16T22:43:56;18;15.2;10.8
74430;PMS7003;62863;52.062;23.764;2022-10-16T22:48:56;18;13.4;10.4
74430;PMS7003;62863;52.062;23.764;2022-10-16T22:54:30;18;16;11
74430;PMS7003;62863;52.062;23.764;2022-10-16T22:59:18;16.4;15.2;11.6
74430;PMS7003;62863;52.062;23.764;2022-10-16T23:04:26;20.6;16.6;11.4
74430;PMS7003;62863;52.062;23.764;2022-10-16T23:09:06;16;14.2;10.4
74430;PMS7003;62863;52.062;23.764;2022-10-16T23:14:18;17.8;14.4;9.8
74430;PMS7003;62863;52.062;23.764;2022-10-16T23:19:28;16;15;11
74430;PMS7003;62863;52.062;23.764;2022-10-16T23:23:42;17.8;15.5;11.8
74430;PMS7003;62863;52.062;23.764;2022-10-16T23:28:48;17.4;14.4;11.2
74430;PMS7003;62863;52.062;23.764;2022-10-16T23:33:42;18;15.6;11.6
74430;PMS7003;62863;52.062;23.764;2022-10-16T23:39:06;17.8;16.2;11.6
74430;PMS7003;62863;52.062;23.764;2022-10-16T23:44:04;19.3;16.8;13.3
74430;PMS7003;62863;52.062;23.764;2022-10-16T23:49:06;17;15;11.2
74430;PMS7003;62863;52.062;23.764;2022-10-16T23:54:24;16.4;15.2;10.8
74430;PMS7003;62863;52.062;23.764;2022-10-16T23:59:24;18.2;15.6;11.4
